sensor_id;sensor_type;location;lat;lon;timestamp;P1;durP1;ratioP1;P2;durP2;ratioP2
73150;SDS011;61354;50.758;6.106;2023-04-28T00:01:22;8.38;;;4.22;;
73150;SDS011;61354;50.758;6.106;2023-04-28T00:06:44;6.15;;;3.47;;
73150;SDS011;61354;50.758;6.106;2023-04-28T00:09:09;8.07;;;3.50;;
73150;SDS011;61354;50.758;6.106;2023-04-28T00:11:53;6.63;;;3.95;;
73150;SDS011;61354;50.758;6.106;2023-04-28T00:14:44;4.68;;;2.85;;
73150;SDS011;61354;50.758;6.106;2023-04-28T00:17:28;6.47;;;3.28;;
73150;SDS011;61354;50.758;6.106;2023-04-28T00:19:59;4.85;;;3.30;;
73150;SDS011;61354;50.758;6.106;2023-04-28T00:22:49;5.22;;;3.00;;
73150;SDS011;61354;50.758;6.106;2023-04-28T00:25:27;4.90;;;2.60;;
73150;SDS011;61354;50.758;6.106;2023-04-28T00:27:58;6.18;;;3.20;;
73150;SDS011;61354;50.758;6.106;2023-04-28T00:30:48;5.65;;;3.25;;
73150;SDS011;61354;50.758;6.106;2023-04-28T00:33:39;3.65;;;2.67;;
73150;SDS011;61354;50.758;6.106;2023-04-28T00:39:19;4.93;;;2.67;;
73150;SDS011;61354;50.758;6.106;2023-04-28T00:41:57;4.72;;;2.65;;
73150;SDS011;61354;50.758;6.106;2023-04-28T00:44:40;6.00;;;2.92;;
73150;SDS011;61354;50.758;6.106;2023-04-28T00:47:08;4.35;;;2.67;;
73150;SDS011;61354;50.758;6.106;2023-04-28T00:49:47;5.93;;;3.08;;
73150;SDS011;61354;50.758;6.106;2023-04-28T00:52:37;4.65;;;2.50;;
73150;SDS011;61354;50.758;6.106;2023-04-28T00:55:21;5.85;;;2.70;;
73150;SDS011;61354;50.758;6.106;2023-04-28T00:58:26;5.90;;;3.83;;
73150;SDS011;61354;50.758;6.106;2023-04-28T01:01:00;6.18;;;3.72;;
73150;SDS011;61354;50.758;6.106;2023-04-28T01:03:38;6.50;;;3.97;;
73150;SDS011;61354;50.758;6.106;2023-04-28T01:06:16;6.47;;;4.00;;
73150;SDS011;61354;50.758;6.106;2023-04-28T01:09:00;5.90;;;3.83;;
73150;SDS011;61354;50.758;6.106;2023-04-28T01:11:32;7.95;;;3.97;;
73150;SDS011;61354;50.758;6.106;2023-04-28T01:13:57;5.72;;;4.05;;
73150;SDS011;61354;50.758;6.106;2023-04-28T01:16:54;6.28;;;4.57;;
73150;SDS011;61354;50.758;6.106;2023-04-28T01:19:38;7.03;;;4.43;;
73150;SDS011;61354;50.758;6.106;2023-04-28T01:22:40;7.43;;;4.80;;
73150;SDS011;61354;50.758;6.106;2023-04-28T01:25:12;8.38;;;4.50;;
73150;SDS011;61354;50.758;6.106;2023-04-28T01:27:49;6.90;;;4.10;;
73150;SDS011;61354;50.758;6.106;2023-04-28T01:30:33;5.90;;;3.88;;
73150;SDS011;61354;50.758;6.106;2023-04-28T01:33:23;5.97;;;3.70;;
73150;SDS011;61354;50.758;6.106;2023-04-28T01:36:00;7.72;;;4.15;;
73150;SDS011;61354;50.758;6.106;2023-04-28T01:38:44;6.90;;;3.70;;
73150;SDS011;61354;50.758;6.106;2023-04-28T01:41:29;7.30;;;4.13;;
73150;SDS011;61354;50.758;6.106;2023-04-28T01:44:06;4.82;;;3.50;;
73150;SDS011;61354;50.758;6.106;2023-04-28T01:46:37;6.15;;;3.80;;
73150;SDS011;61354;50.758;6.106;2023-04-28T01:49:21;5.97;;;3.72;;
73150;SDS011;61354;50.758;6.106;2023-04-28T01:55:08;5.60;;;3.33;;
73150;SDS011;61354;50.758;6.106;2023-04-28T01:57:57;7.28;;;3.67;;
73150;SDS011;61354;50.758;6.106;2023-04-28T02:00:41;5.70;;;3.30;;
73150;SDS011;61354;50.758;6.106;2023-04-28T02:03:12;5.10;;;3.08;;
73150;SDS011;61354;50.758;6.106;2023-04-28T02:08:52;6.25;;;3.00;;
73150;SDS011;61354;50.758;6.106;2023-04-28T02:11:36;5.85;;;2.88;;
73150;SDS011;61354;50.758;6.106;2023-04-28T02:17:10;4.78;;;2.80;;
73150;SDS011;61354;50.758;6.106;2023-04-28T02:20:12;5.03;;;3.50;;
73150;SDS011;61354;50.758;6.106;2023-04-28T02:22:45;4.18;;;3.08;;
73150;SDS011;61354;50.758;6.106;2023-04-28T02:25:46;6.18;;;3.38;;
73150;SDS011;61354;50.758;6.106;2023-04-28T02:28:30;5.97;;;3.08;;
73150;SDS011;61354;50.758;6.106;2023-04-28T02:34:04;6.28;;;3.45;;
73150;SDS011;61354;50.758;6.106;2023-04-28T02:36:37;5.28;;;3.25;;
73150;SDS011;61354;50.758;6.106;2023-04-28T02:39:21;6.82;;;3.50;;
73150;SDS011;61354;50.758;6.106;2023-04-28T02:41:59;5.18;;;3.25;;
73150;SDS011;61354;50.758;6.106;2023-04-28T02:44:48;6.05;;;3.58;;
73150;SDS011;61354;50.758;6.106;2023-04-28T02:47:38;5.65;;;3.00;;
73150;SDS011;61354;50.758;6.106;2023-04-28T02:53:06;4.80;;;3.00;;
73150;SDS011;61354;50.758;6.106;2023-04-28T02:55:32;6.60;;;3.63;;
73150;SDS011;61354;50.758;6.106;2023-04-28T02:58:09;7.32;;;3.22;;
73150;SDS011;61354;50.758;6.106;2023-04-28T03:01:05;4.78;;;2.92;;
73150;SDS011;61354;50.758;6.106;2023-04-28T03:04:01;5.55;;;3.47;;
73150;SDS011;61354;50.758;6.106;2023-04-28T03:06:39;5.43;;;3.00;;
73150;SDS011;61354;50.758;6.106;2023-04-28T03:09:23;6.88;;;3.15;;
73150;SDS011;61354;50.758;6.106;2023-04-28T03:11:49;4.47;;;2.72;;
73150;SDS011;61354;50.758;6.106;2023-04-28T03:14:20;6.28;;;3.28;;
73150;SDS011;61354;50.758;6.106;2023-04-28T03:16:52;6.35;;;3.00;;
73150;SDS011;61354;50.758;6.106;2023-04-28T03:19:23;4.47;;;2.83;;
73150;SDS011;61354;50.758;6.106;2023-04-28T03:22:20;5.07;;;3.03;;
73150;SDS011;61354;50.758;6.106;2023-04-28T03:25:16;4.32;;;3.05;;
73150;SDS011;61354;50.758;6.106;2023-04-28T03:27:47;5.70;;;2.80;;
73150;SDS011;61354;50.758;6.106;2023-04-28T03:30:13;6.30;;;3.35;;
73150;SDS011;61354;50.758;6.106;2023-04-28T03:33:02;4.72;;;3.10;;
73150;SDS011;61354;50.758;6.106;2023-04-28T03:35:59;4.60;;;2.70;;
73150;SDS011;61354;50.758;6.106;2023-04-28T03:38:36;4.93;;;2.83;;
73150;SDS011;61354;50.758;6.106;2023-04-28T03:41:33;6.13;;;3.30;;
73150;SDS011;61354;50.758;6.106;2023-04-28T03:44:11;4.97;;;2.60;;
73150;SDS011;61354;50.758;6.106;2023-04-28T03:46:42;5.30;;;3.10;;
73150;SDS011;61354;50.758;6.106;2023-04-28T03:49:26;4.65;;;3.03;;
73150;SDS011;61354;50.758;6.106;2023-04-28T03:51:58;6.43;;;2.95;;
73150;SDS011;61354;50.758;6.106;2023-04-28T03:54:42;4.88;;;2.80;;
73150;SDS011;61354;50.758;6.106;2023-04-28T03:57:25;4.40;;;2.75;;
73150;SDS011;61354;50.758;6.106;2023-04-28T04:00:03;5.28;;;3.15;;
73150;SDS011;61354;50.758;6.106;2023-04-28T04:02:29;5.07;;;3.30;;
73150;SDS011;61354;50.758;6.106;2023-04-28T04:07:57;5.43;;;3.38;;
73150;SDS011;61354;50.758;6.106;2023-04-28T04:10:23;4.28;;;2.80;;
73150;SDS011;61354;50.758;6.106;2023-04-28T04:13:19;4.53;;;2.97;;
73150;SDS011;61354;50.758;6.106;2023-04-28T04:16:03;4.85;;;3.00;;
73150;SDS011;61354;50.758;6.106;2023-04-28T04:18:59;4.88;;;3.22;;
73150;SDS011;61354;50.758;6.106;2023-04-28T04:21:55;6.57;;;3.30;;
73150;SDS011;61354;50.758;6.106;2023-04-28T04:24:33;5.40;;;3.03;;
73150;SDS011;61354;50.758;6.106;2023-04-28T04:27:16;6.50;;;3.28;;
73150;SDS011;61354;50.758;6.106;2023-04-28T04:29:54;6.43;;;3.60;;
73150;SDS011;61354;50.758;6.106;2023-04-28T04:32:38;5.00;;;3.45;;
73150;SDS011;61354;50.758;6.106;2023-04-28T04:35:15;5.65;;;3.47;;
73150;SDS011;61354;50.758;6.106;2023-04-28T04:37:47;5.63;;;3.60;;
73150;SDS011;61354;50.758;6.106;2023-04-28T04:40:31;7.88;;;3.50;;
73150;SDS011;61354;50.758;6.106;2023-04-28T04:43:21;5.30;;;3.42;;
73150;SDS011;61354;50.758;6.106;2023-04-28T04:46:23;6.47;;;3.22;;
73150;SDS011;61354;50.758;6.106;2023-04-28T04:49:01;5.50;;;3.60;;
73150;SDS011;61354;50.758;6.106;2023-04-28T04:51:32;5.70;;;3.38;;
73150;SDS011;61354;50.758;6.106;2023-04-28T04:54:04;5.40;;;3.42;;
73150;SDS011;61354;50.758;6.106;2023-04-28T04:56:48;7.53;;;3.78;;
73150;SDS011;61354;50.758;6.106;2023-04-28T04:59:26;7.47;;;3.92;;
73150;SDS011;61354;50.758;6.106;2023-04-28T05:01:52;6.75;;;3.83;;
73150;SDS011;61354;50.758;6.106;2023-04-28T05:04:36;6.38;;;3.53;;
73150;SDS011;61354;50.758;6.106;2023-04-28T05:07:01;5.82;;;3.42;;
73150;SDS011;61354;50.758;6.106;2023-04-28T05:09:45;5.75;;;3.72;;
73150;SDS011;61354;50.758;6.106;2023-04-28T05:12:47;5.82;;;3.42;;
73150;SDS011;61354;50.758;6.106;2023-04-28T05:15:49;5.82;;;3.45;;
73150;SDS011;61354;50.758;6.106;2023-04-28T05:18:52;6.22;;;3.63;;
73150;SDS011;61354;50.758;6.106;2023-04-28T05:24:31;6.50;;;3.67;;
73150;SDS011;61354;50.758;6.106;2023-04-28T05:27:03;6.25;;;3.55;;
73150;SDS011;61354;50.758;6.106;2023-04-28T05:29:41;7.18;;;3.67;;
73150;SDS011;61354;50.758;6.106;2023-04-28T05:32:12;5.72;;;3.75;;
73150;SDS011;61354;50.758;6.106;2023-04-28T05:34:56;4.88;;;3.45;;
73150;SDS011;61354;50.758;6.106;2023-04-28T05:40:24;8.20;;;4.18;;
73150;SDS011;61354;50.758;6.106;2023-04-28T05:46:17;5.97;;;3.65;;
73150;SDS011;61354;50.758;6.106;2023-04-28T05:49:01;5.65;;;3.60;;
73150;SDS011;61354;50.758;6.106;2023-04-28T05:51:38;5.93;;;3.78;;
73150;SDS011;61354;50.758;6.106;2023-04-28T05:54:10;7.50;;;3.88;;
73150;SDS011;61354;50.758;6.106;2023-04-28T05:57:00;7.10;;;4.15;;
73150;SDS011;61354;50.758;6.106;2023-04-28T06:02:41;5.72;;;3.65;;
73150;SDS011;61354;50.758;6.106;2023-04-28T06:05:07;6.75;;;3.80;;
73150;SDS011;61354;50.758;6.106;2023-04-28T06:07:47;6.13;;;3.53;;
73150;SDS011;61354;50.758;6.106;2023-04-28T06:10:13;6.13;;;3.42;;
73150;SDS011;61354;50.758;6.106;2023-04-28T06:12:45;5.72;;;3.78;;
73150;SDS011;61354;50.758;6.106;2023-04-28T06:15:29;6.15;;;3.75;;
73150;SDS011;61354;50.758;6.106;2023-04-28T06:21:09;5.95;;;3.83;;
73150;SDS011;61354;50.758;6.106;2023-04-28T06:23:47;7.70;;;4.07;;
73150;SDS011;61354;50.758;6.106;2023-04-28T06:26:42;5.93;;;3.58;;
73150;SDS011;61354;50.758;6.106;2023-04-28T06:29:38;6.72;;;3.72;;
73150;SDS011;61354;50.758;6.106;2023-04-28T06:32:43;7.10;;;3.70;;
73150;SDS011;61354;50.758;6.106;2023-04-28T06:35:15;4.68;;;3.10;;
73150;SDS011;61354;50.758;6.106;2023-04-28T06:38:05;5.60;;;3.10;;
73150;SDS011;61354;50.758;6.106;2023-04-28T06:40:37;4.80;;;3.33;;
73150;SDS011;61354;50.758;6.106;2023-04-28T06:43:14;6.55;;;2.78;;
73150;SDS011;61354;50.758;6.106;2023-04-28T06:46:10;3.97;;;2.40;;
73150;SDS011;61354;50.758;6.106;2023-04-28T06:48:36;4.35;;;2.33;;
73150;SDS011;61354;50.758;6.106;2023-04-28T06:51:19;4.80;;;2.65;;
73150;SDS011;61354;50.758;6.106;2023-04-28T06:54:15;4.10;;;2.30;;
73150;SDS011;61354;50.758;6.106;2023-04-28T06:56:41;4.68;;;2.50;;
73150;SDS011;61354;50.758;6.106;2023-04-28T06:59:07;4.35;;;2.33;;
73150;SDS011;61354;50.758;6.106;2023-04-28T07:01:50;4.47;;;2.60;;
73150;SDS011;61354;50.758;6.106;2023-04-28T07:04:35;4.18;;;2.33;;
73150;SDS011;61354;50.758;6.106;2023-04-28T07:07:25;5.07;;;2.42;;
73150;SDS011;61354;50.758;6.106;2023-04-28T07:09:51;4.55;;;2.35;;
73150;SDS011;61354;50.758;6.106;2023-04-28T07:12:59;3.83;;;2.30;;
73150;SDS011;61354;50.758;6.106;2023-04-28T07:15:30;4.53;;;2.72;;
73150;SDS011;61354;50.758;6.106;2023-04-28T07:18:02;4.50;;;2.90;;
73150;SDS011;61354;50.758;6.106;2023-04-28T07:20:28;4.22;;;2.47;;
73150;SDS011;61354;50.758;6.106;2023-04-28T07:22:53;4.32;;;2.35;;
73150;SDS011;61354;50.758;6.106;2023-04-28T07:25:43;4.60;;;2.83;;
73150;SDS011;61354;50.758;6.106;2023-04-28T07:28:08;4.05;;;2.70;;
73150;SDS011;61354;50.758;6.106;2023-04-28T07:30:40;3.88;;;2.67;;
73150;SDS011;61354;50.758;6.106;2023-04-28T07:33:05;3.65;;;2.55;;
73150;SDS011;61354;50.758;6.106;2023-04-28T07:35:49;4.38;;;2.97;;
73150;SDS011;61354;50.758;6.106;2023-04-28T07:38:16;3.88;;;2.63;;
73150;SDS011;61354;50.758;6.106;2023-04-28T07:40:48;4.80;;;2.85;;
73150;SDS011;61354;50.758;6.106;2023-04-28T07:43:31;3.60;;;2.28;;
73150;SDS011;61354;50.758;6.106;2023-04-28T07:46:21;3.55;;;2.28;;
73150;SDS011;61354;50.758;6.106;2023-04-28T07:49:04;3.67;;;2.28;;
73150;SDS011;61354;50.758;6.106;2023-04-28T07:51:36;3.72;;;2.00;;
73150;SDS011;61354;50.758;6.106;2023-04-28T07:54:20;3.55;;;2.05;;
73150;SDS011;61354;50.758;6.106;2023-04-28T07:57:10;2.80;;;1.92;;
73150;SDS011;61354;50.758;6.106;2023-04-28T08:00:00;3.33;;;1.95;;
73150;SDS011;61354;50.758;6.106;2023-04-28T08:02:56;3.10;;;1.90;;
73150;SDS011;61354;50.758;6.106;2023-04-28T08:08:55;2.83;;;1.73;;
73150;SDS011;61354;50.758;6.106;2023-04-28T08:11:28;3.08;;;1.90;;
73150;SDS011;61354;50.758;6.106;2023-04-28T08:14:30;1.92;;;1.23;;
73150;SDS011;61354;50.758;6.106;2023-04-28T08:17:01;1.52;;;1.10;;
73150;SDS011;61354;50.758;6.106;2023-04-28T08:19:51;2.00;;;1.00;;
73150;SDS011;61354;50.758;6.106;2023-04-28T08:22:42;1.80;;;1.05;;
73150;SDS011;61354;50.758;6.106;2023-04-28T08:25:26;1.92;;;0.90;;
73150;SDS011;61354;50.758;6.106;2023-04-28T08:27:57;1.60;;;1.02;;
73150;SDS011;61354;50.758;6.106;2023-04-28T08:30:23;2.35;;;1.30;;
73150;SDS011;61354;50.758;6.106;2023-04-28T08:33:08;2.10;;;1.20;;
73150;SDS011;61354;50.758;6.106;2023-04-28T08:35:40;2.05;;;1.20;;
73150;SDS011;61354;50.758;6.106;2023-04-28T08:38:24;2.30;;;1.27;;
73150;SDS011;61354;50.758;6.106;2023-04-28T08:41:09;2.13;;;1.20;;
73150;SDS011;61354;50.758;6.106;2023-04-28T08:43:43;4.97;;;1.40;;
73150;SDS011;61354;50.758;6.106;2023-04-28T08:46:15;2.03;;;1.30;;
73150;SDS011;61354;50.758;6.106;2023-04-28T08:49:01;2.50;;;1.30;;
73150;SDS011;61354;50.758;6.106;2023-04-28T08:51:37;2.20;;;1.20;;
73150;SDS011;61354;50.758;6.106;2023-04-28T08:54:31;2.25;;;1.33;;
73150;SDS011;61354;50.758;6.106;2023-04-28T08:57:18;1.88;;;1.20;;
73150;SDS011;61354;50.758;6.106;2023-04-28T09:00:22;2.25;;;1.40;;
73150;SDS011;61354;50.758;6.106;2023-04-28T09:02:53;2.63;;;1.40;;
73150;SDS011;61354;50.758;6.106;2023-04-28T09:05:24;2.35;;;1.30;;
73150;SDS011;61354;50.758;6.106;2023-04-28T09:07:50;2.75;;;1.60;;
73150;SDS011;61354;50.758;6.106;2023-04-28T09:13:45;3.17;;;1.40;;
73150;SDS011;61354;50.758;6.106;2023-04-28T09:16:22;3.88;;;2.00;;
73150;SDS011;61354;50.758;6.106;2023-04-28T09:19:09;3.60;;;2.08;;
73150;SDS011;61354;50.758;6.106;2023-04-28T09:21:45;3.72;;;1.88;;
73150;SDS011;61354;50.758;6.106;2023-04-28T09:27:18;3.75;;;2.10;;
73150;SDS011;61354;50.758;6.106;2023-04-28T09:29:57;2.67;;;1.70;;
73150;SDS011;61354;50.758;6.106;2023-04-28T09:32:35;3.67;;;2.30;;
73150;SDS011;61354;50.758;6.106;2023-04-28T09:38:46;2.88;;;1.55;;
73150;SDS011;61354;50.758;6.106;2023-04-28T09:41:11;3.63;;;2.35;;
73150;SDS011;61354;50.758;6.106;2023-04-28T09:43:55;4.45;;;2.08;;
73150;SDS011;61354;50.758;6.106;2023-04-28T09:46:34;3.35;;;1.92;;
73150;SDS011;61354;50.758;6.106;2023-04-28T09:49:06;3.30;;;2.10;;
73150;SDS011;61354;50.758;6.106;2023-04-28T09:51:43;4.00;;;2.22;;
73150;SDS011;61354;50.758;6.106;2023-04-28T09:54:52;3.78;;;2.15;;
73150;SDS011;61354;50.758;6.106;2023-04-28T09:57:43;5.10;;;2.00;;
73150;SDS011;61354;50.758;6.106;2023-04-28T10:00:35;3.40;;;2.10;;
73150;SDS011;61354;50.758;6.106;2023-04-28T10:03:16;3.90;;;2.20;;
73150;SDS011;61354;50.758;6.106;2023-04-28T10:05:49;4.30;;;2.20;;
73150;SDS011;61354;50.758;6.106;2023-04-28T10:08:17;4.90;;;2.35;;
73150;SDS011;61354;50.758;6.106;2023-04-28T10:10:50;4.82;;;2.65;;
73150;SDS011;61354;50.758;6.106;2023-04-28T10:13:28;3.88;;;2.47;;
73150;SDS011;61354;50.758;6.106;2023-04-28T10:16:05;4.80;;;3.25;;
73150;SDS011;61354;50.758;6.106;2023-04-28T10:18:38;4.15;;;2.78;;
73150;SDS011;61354;50.758;6.106;2023-04-28T10:21:23;4.53;;;2.47;;
73150;SDS011;61354;50.758;6.106;2023-04-28T10:24:09;4.25;;;2.60;;
73150;SDS011;61354;50.758;6.106;2023-04-28T10:27:15;4.57;;;2.70;;
73150;SDS011;61354;50.758;6.106;2023-04-28T10:30:06;5.32;;;2.88;;
73150;SDS011;61354;50.758;6.106;2023-04-28T10:38:23;4.63;;;2.42;;
73150;SDS011;61354;50.758;6.106;2023-04-28T10:40:50;4.40;;;2.38;;
73150;SDS011;61354;50.758;6.106;2023-04-28T10:46:12;4.25;;;2.63;;
73150;SDS011;61354;50.758;6.106;2023-04-28T10:49:16;3.65;;;2.55;;
73150;SDS011;61354;50.758;6.106;2023-04-28T10:51:47;3.47;;;2.38;;
73150;SDS011;61354;50.758;6.106;2023-04-28T10:54:13;3.47;;;2.20;;
73150;SDS011;61354;50.758;6.106;2023-04-28T10:57:16;4.07;;;2.22;;
73150;SDS011;61354;50.758;6.106;2023-04-28T11:03:04;2.92;;;2.13;;
73150;SDS011;61354;50.758;6.106;2023-04-28T11:19:24;4.00;;;2.50;;
73150;SDS011;61354;50.758;6.106;2023-04-28T11:21:51;3.35;;;2.13;;
73150;SDS011;61354;50.758;6.106;2023-04-28T11:24:37;3.60;;;2.47;;
73150;SDS011;61354;50.758;6.106;2023-04-28T11:27:32;4.70;;;2.20;;
73150;SDS011;61354;50.758;6.106;2023-04-28T11:38:43;5.07;;;2.53;;
73150;SDS011;61354;50.758;6.106;2023-04-28T11:41:21;4.03;;;2.50;;
73150;SDS011;61354;50.758;6.106;2023-04-28T11:44:00;5.35;;;2.55;;
73150;SDS011;61354;50.758;6.106;2023-04-28T11:52:30;4.25;;;2.42;;
73150;SDS011;61354;50.758;6.106;2023-04-28T11:55:15;3.15;;;1.95;;
73150;SDS011;61354;50.758;6.106;2023-04-28T11:57:41;4.03;;;2.63;;
73150;SDS011;61354;50.758;6.106;2023-04-28T12:00:45;4.93;;;2.60;;
73150;SDS011;61354;50.758;6.106;2023-04-28T12:03:17;4.65;;;2.47;;
73150;SDS011;61354;50.758;6.106;2023-04-28T12:06:01;5.45;;;2.70;;
73150;SDS011;61354;50.758;6.106;2023-04-28T12:08:50;4.95;;;3.20;;
73150;SDS011;61354;50.758;6.106;2023-04-28T12:11:26;5.68;;;3.40;;
73150;SDS011;61354;50.758;6.106;2023-04-28T12:14:30;4.07;;;2.63;;
73150;SDS011;61354;50.758;6.106;2023-04-28T12:17:34;5.18;;;2.78;;
73150;SDS011;61354;50.758;6.106;2023-04-28T12:20:08;4.70;;;2.97;;
73150;SDS011;61354;50.758;6.106;2023-04-28T12:23:05;3.90;;;2.60;;
73150;SDS011;61354;50.758;6.106;2023-04-28T12:28:52;3.75;;;2.10;;
73150;SDS011;61354;50.758;6.106;2023-04-28T12:34:33;4.88;;;2.55;;
73150;SDS011;61354;50.758;6.106;2023-04-28T12:37:23;3.72;;;2.00;;
73150;SDS011;61354;50.758;6.106;2023-04-28T12:39:55;2.95;;;1.73;;
73150;SDS011;61354;50.758;6.106;2023-04-28T12:45:23;2.95;;;2.00;;
73150;SDS011;61354;50.758;6.106;2023-04-28T12:48:01;2.95;;;1.80;;
73150;SDS011;61354;50.758;6.106;2023-04-28T12:50:33;2.65;;;1.77;;
73150;SDS011;61354;50.758;6.106;2023-04-28T12:53:04;4.25;;;2.08;;
73150;SDS011;61354;50.758;6.106;2023-04-28T12:56:07;3.83;;;1.80;;
73150;SDS011;61354;50.758;6.106;2023-04-28T12:58:51;3.28;;;1.67;;
73150;SDS011;61354;50.758;6.106;2023-04-28T13:04:50;3.08;;;1.52;;
73150;SDS011;61354;50.758;6.106;2023-04-28T13:07:34;4.13;;;1.60;;
73150;SDS011;61354;50.758;6.106;2023-04-28T13:10:11;2.92;;;1.70;;
73150;SDS011;61354;50.758;6.106;2023-04-28T13:15:52;3.20;;;1.98;;
73150;SDS011;61354;50.758;6.106;2023-04-28T13:18:35;3.97;;;2.00;;
73150;SDS011;61354;50.758;6.106;2023-04-28T13:21:50;2.90;;;1.70;;
73150;SDS011;61354;50.758;6.106;2023-04-28T13:24:52;3.22;;;1.77;;
73150;SDS011;61354;50.758;6.106;2023-04-28T13:27:24;2.83;;;1.63;;
73150;SDS011;61354;50.758;6.106;2023-04-28T13:30:20;2.55;;;1.45;;
73150;SDS011;61354;50.758;6.106;2023-04-28T13:33:11;2.88;;;1.42;;
73150;SDS011;61354;50.758;6.106;2023-04-28T13:42:13;2.55;;;1.40;;
73150;SDS011;61354;50.758;6.106;2023-04-28T13:45:03;3.13;;;1.30;;
73150;SDS011;61354;50.758;6.106;2023-04-28T13:47:40;1.50;;;1.10;;
73150;SDS011;61354;50.758;6.106;2023-04-28T13:56:44;2.70;;;1.90;;
73150;SDS011;61354;50.758;6.106;2023-04-28T13:59:35;2.60;;;1.70;;
73150;SDS011;61354;50.758;6.106;2023-04-28T14:02:19;4.40;;;1.80;;
73150;SDS011;61354;50.758;6.106;2023-04-28T14:04:51;2.72;;;1.98;;
73150;SDS011;61354;50.758;6.106;2023-04-28T14:07:42;6.10;;;2.17;;
73150;SDS011;61354;50.758;6.106;2023-04-28T14:13:34;3.28;;;1.83;;
73150;SDS011;61354;50.758;6.106;2023-04-28T14:19:02;2.60;;;1.60;;
73150;SDS011;61354;50.758;6.106;2023-04-28T14:21:42;2.90;;;1.50;;
73150;SDS011;61354;50.758;6.106;2023-04-28T14:24:20;1.90;;;1.27;;
73150;SDS011;61354;50.758;6.106;2023-04-28T14:27:22;1.40;;;1.02;;
73150;SDS011;61354;50.758;6.106;2023-04-28T14:29:53;2.40;;;1.00;;
73150;SDS011;61354;50.758;6.106;2023-04-28T14:32:37;1.65;;;0.93;;
73150;SDS011;61354;50.758;6.106;2023-04-28T14:35:33;2.45;;;1.23;;
73150;SDS011;61354;50.758;6.106;2023-04-28T14:37:59;1.95;;;0.90;;
73150;SDS011;61354;50.758;6.106;2023-04-28T14:40:36;1.23;;;0.80;;
73150;SDS011;61354;50.758;6.106;2023-04-28T14:43:20;1.45;;;0.90;;
73150;SDS011;61354;50.758;6.106;2023-04-28T14:46:04;2.10;;;1.13;;
73150;SDS011;61354;50.758;6.106;2023-04-28T14:49:00;1.40;;;0.80;;
73150;SDS011;61354;50.758;6.106;2023-04-28T14:51:26;1.85;;;1.20;;
73150;SDS011;61354;50.758;6.106;2023-04-28T14:53:52;1.38;;;0.85;;
73150;SDS011;61354;50.758;6.106;2023-04-28T14:56:30;1.08;;;0.77;;
73150;SDS011;61354;50.758;6.106;2023-04-28T14:59:01;3.90;;;1.30;;
73150;SDS011;61354;50.758;6.106;2023-04-28T15:01:33;1.27;;;0.90;;
73150;SDS011;61354;50.758;6.106;2023-04-28T15:04:29;1.70;;;0.90;;
73150;SDS011;61354;50.758;6.106;2023-04-28T15:07:19;2.15;;;1.10;;
73150;SDS011;61354;50.758;6.106;2023-04-28T15:09:55;3.03;;;1.23;;
73150;SDS011;61354;50.758;6.106;2023-04-28T15:12:22;2.88;;;1.48;;
73150;SDS011;61354;50.758;6.106;2023-04-28T15:15:00;3.30;;;1.50;;
73150;SDS011;61354;50.758;6.106;2023-04-28T15:20:31;2.88;;;1.50;;
73150;SDS011;61354;50.758;6.106;2023-04-28T15:23:14;2.22;;;1.40;;
73150;SDS011;61354;50.758;6.106;2023-04-28T15:25:52;2.88;;;1.30;;
73150;SDS011;61354;50.758;6.106;2023-04-28T15:28:30;3.22;;;1.70;;
73150;SDS011;61354;50.758;6.106;2023-04-28T15:31:52;3.25;;;2.13;;
73150;SDS011;61354;50.758;6.106;2023-04-28T15:34:17;4.22;;;2.08;;
73150;SDS011;61354;50.758;6.106;2023-04-28T15:37:04;2.65;;;1.85;;
73150;SDS011;61354;50.758;6.106;2023-04-28T15:40:21;3.30;;;1.80;;
73150;SDS011;61354;50.758;6.106;2023-04-28T15:45:32;2.80;;;1.90;;
73150;SDS011;61354;50.758;6.106;2023-04-28T15:48:11;3.33;;;1.80;;
73150;SDS011;61354;50.758;6.106;2023-04-28T15:50:42;2.83;;;1.50;;
73150;SDS011;61354;50.758;6.106;2023-04-28T15:53:14;2.33;;;1.50;;
73150;SDS011;61354;50.758;6.106;2023-04-28T15:55:58;2.30;;;1.40;;
73150;SDS011;61354;50.758;6.106;2023-04-28T15:58:55;2.35;;;1.30;;
73150;SDS011;61354;50.758;6.106;2023-04-28T16:01:39;6.65;;;1.20;;
73150;SDS011;61354;50.758;6.106;2023-04-28T16:04:04;1.40;;;0.98;;
73150;SDS011;61354;50.758;6.106;2023-04-28T16:06:48;1.70;;;1.00;;
73150;SDS011;61354;50.758;6.106;2023-04-28T16:09:56;1.52;;;1.00;;
73150;SDS011;61354;50.758;6.106;2023-04-28T16:12:58;3.42;;;1.20;;
73150;SDS011;61354;50.758;6.106;2023-04-28T16:15:42;2.38;;;1.42;;
73150;SDS011;61354;50.758;6.106;2023-04-28T16:18:44;2.72;;;1.30;;
73150;SDS011;61354;50.758;6.106;2023-04-28T16:21:28;1.30;;;1.00;;
73150;SDS011;61354;50.758;6.106;2023-04-28T16:24:00;1.55;;;1.20;;
73150;SDS011;61354;50.758;6.106;2023-04-28T16:26:27;2.22;;;1.40;;
73150;SDS011;61354;50.758;6.106;2023-04-28T16:28:52;1.77;;;1.20;;
73150;SDS011;61354;50.758;6.106;2023-04-28T16:31:30;2.05;;;1.20;;
73150;SDS011;61354;50.758;6.106;2023-04-28T16:34:14;1.65;;;1.13;;
73150;SDS011;61354;50.758;6.106;2023-04-28T16:36:58;1.40;;;1.10;;
73150;SDS011;61354;50.758;6.106;2023-04-28T16:39:36;1.85;;;1.25;;
73150;SDS011;61354;50.758;6.106;2023-04-28T16:42:07;2.95;;;1.15;;
73150;SDS011;61354;50.758;6.106;2023-04-28T16:44:33;3.50;;;1.30;;
73150;SDS011;61354;50.758;6.106;2023-04-28T16:47:16;1.85;;;1.10;;
73150;SDS011;61354;50.758;6.106;2023-04-28T16:50:00;2.55;;;1.20;;
73150;SDS011;61354;50.758;6.106;2023-04-28T16:52:47;1.73;;;1.13;;
73150;SDS011;61354;50.758;6.106;2023-04-28T16:55:43;1.33;;;1.05;;
73150;SDS011;61354;50.758;6.106;2023-04-28T16:58:21;2.25;;;1.20;;
73150;SDS011;61354;50.758;6.106;2023-04-28T17:00:59;1.73;;;1.15;;
73150;SDS011;61354;50.758;6.106;2023-04-28T17:03:43;2.15;;;1.00;;
73150;SDS011;61354;50.758;6.106;2023-04-28T17:06:15;1.52;;;1.02;;
73150;SDS011;61354;50.758;6.106;2023-04-28T17:08:46;1.25;;;0.98;;
73150;SDS011;61354;50.758;6.106;2023-04-28T17:11:18;2.05;;;1.00;;
73150;SDS011;61354;50.758;6.106;2023-04-28T17:14:02;1.73;;;1.20;;
73150;SDS011;61354;50.758;6.106;2023-04-28T17:16:40;1.55;;;1.10;;
73150;SDS011;61354;50.758;6.106;2023-04-28T17:19:24;1.73;;;1.30;;
73150;SDS011;61354;50.758;6.106;2023-04-28T17:21:57;1.90;;;1.15;;
73150;SDS011;61354;50.758;6.106;2023-04-28T17:24:41;1.60;;;1.10;;
73150;SDS011;61354;50.758;6.106;2023-04-28T17:33:08;1.30;;;1.02;;
73150;SDS011;61354;50.758;6.106;2023-04-28T17:35:52;1.35;;;1.10;;
73150;SDS011;61354;50.758;6.106;2023-04-28T17:38:17;2.15;;;1.30;;
73150;SDS011;61354;50.758;6.106;2023-04-28T17:41:39;2.28;;;1.30;;
73150;SDS011;61354;50.758;6.106;2023-04-28T17:49:45;2.00;;;1.20;;
73150;SDS011;61354;50.758;6.106;2023-04-28T17:52:11;1.75;;;1.10;;
73150;SDS011;61354;50.758;6.106;2023-04-28T17:54:48;2.30;;;1.35;;
73150;SDS011;61354;50.758;6.106;2023-04-28T17:57:51;2.75;;;1.60;;
73150;SDS011;61354;50.758;6.106;2023-04-28T18:00:22;2.58;;;1.35;;
73150;SDS011;61354;50.758;6.106;2023-04-28T18:03:19;3.42;;;1.40;;
73150;SDS011;61354;50.758;6.106;2023-04-28T18:06:14;1.83;;;1.20;;
73150;SDS011;61354;50.758;6.106;2023-04-28T18:14:52;2.38;;;1.58;;
73150;SDS011;61354;50.758;6.106;2023-04-28T18:17:45;2.28;;;1.50;;
73150;SDS011;61354;50.758;6.106;2023-04-28T18:20:34;2.42;;;1.38;;
73150;SDS011;61354;50.758;6.106;2023-04-28T18:23:12;2.70;;;1.38;;
73150;SDS011;61354;50.758;6.106;2023-04-28T18:25:38;2.90;;;1.60;;
73150;SDS011;61354;50.758;6.106;2023-04-28T18:28:04;3.03;;;1.52;;
73150;SDS011;61354;50.758;6.106;2023-04-28T18:30:29;2.45;;;1.67;;
73150;SDS011;61354;50.758;6.106;2023-04-28T18:33:13;3.05;;;1.70;;
73150;SDS011;61354;50.758;6.106;2023-04-28T18:35:59;2.92;;;1.40;;
73150;SDS011;61354;50.758;6.106;2023-04-28T18:38:29;3.20;;;1.70;;
73150;SDS011;61354;50.758;6.106;2023-04-28T18:41:14;3.00;;;1.90;;